Terminal Aerodrome Forecast
Issued by NWS

Home | Current Version | Previous Version | Text Only | Print | Product List | Glossary On
Versions: 1 2 3 4 5 6 7 8 9 10 11 12 13 14 15 16 17 18 19 20 21
647
FTUS41 KGYX 241258 AAA
TAFLEB
TAF AMD
KLEB 241258Z 2413/2512 00000KT 3SM -SHSN BKN025 OVC050
      TEMPO 2413/2417 1 1/2SM -SN BR BKN015 OVC025
     FM241700 19007KT 2SM -SN BKN008 OVC015
     FM242300 18004KT P6SM -SHRA BKN015 OVC025
     FM250500 00000KT P6SM BKN025 OVC050=

USA.gov is the U.S. government's official web portal to all federal, state and local government web resources and services.